sensor_id;sensor_type;location;lat;lon;timestamp;pressure;altitude;pressure_sealevel;temperature;humidity
50710;BME280;37033;49.994;21.992;2023-04-27T00:00:27;99312.16;;;3.29;68.69
50710;BME280;37033;49.994;21.992;2023-04-27T00:03:16;99311.20;;;3.28;68.88
50710;BME280;37033;49.994;21.992;2023-04-27T00:05:47;99307.48;;;3.27;68.90
50710;BME280;37033;49.994;21.992;2023-04-27T00:08:17;99309.13;;;3.25;69.36
50710;BME280;37033;49.994;21.992;2023-04-27T00:10:48;99302.21;;;3.25;69.17
50710;BME280;37033;49.994;21.992;2023-04-27T00:13:19;99306.10;;;3.25;69.27
50710;BME280;37033;49.994;21.992;2023-04-27T00:15:49;99304.66;;;3.25;69.39
50710;BME280;37033;49.994;21.992;2023-04-27T00:18:20;99306.23;;;3.27;69.69
50710;BME280;37033;49.994;21.992;2023-04-27T00:20:51;99302.59;;;3.27;69.60
50710;BME280;37033;49.994;21.992;2023-04-27T00:23:22;99304.92;;;3.29;69.67
50710;BME280;37033;49.994;21.992;2023-04-27T00:25:53;99302.75;;;3.30;69.75
50710;BME280;37033;49.994;21.992;2023-04-27T00:28:23;99304.69;;;3.32;69.74
50710;BME280;37033;49.994;21.992;2023-04-27T00:30:54;99303.26;;;3.33;69.59
50710;BME280;37033;49.994;21.992;2023-04-27T00:33:25;99303.23;;;3.35;69.88
50710;BME280;37033;49.994;21.992;2023-04-27T00:35:55;99302.41;;;3.35;69.82
50710;BME280;37033;49.994;21.992;2023-04-27T00:38:28;99303.48;;;3.37;69.81
50710;BME280;37033;49.994;21.992;2023-04-27T00:41:03;99304.45;;;3.38;69.90
50710;BME280;37033;49.994;21.992;2023-04-27T00:43:41;99303.41;;;3.38;69.92
50710;BME280;37033;49.994;21.992;2023-04-27T00:46:14;99302.83;;;3.37;69.99
50710;BME280;37033;49.994;21.992;2023-04-27T00:48:46;99302.58;;;3.37;70.23
50710;BME280;37033;49.994;21.992;2023-04-27T00:51:17;99303.48;;;3.37;70.26
50710;BME280;37033;49.994;21.992;2023-04-27T00:53:47;99307.06;;;3.39;70.25
50710;BME280;37033;49.994;21.992;2023-04-27T00:56:18;99300.94;;;3.42;70.20
50710;BME280;37033;49.994;21.992;2023-04-27T00:58:49;99300.40;;;3.45;70.06
50710;BME280;37033;49.994;21.992;2023-04-27T01:01:20;99308.36;;;3.48;70.11
50710;BME280;37033;49.994;21.992;2023-04-27T01:03:50;99308.74;;;3.52;69.99
50710;BME280;37033;49.994;21.992;2023-04-27T01:06:21;99308.60;;;3.54;70.01
50710;BME280;37033;49.994;21.992;2023-04-27T01:08:52;99307.91;;;3.56;69.90
50710;BME280;37033;49.994;21.992;2023-04-27T01:11:23;99306.38;;;3.56;69.95
50710;BME280;37033;49.994;21.992;2023-04-27T01:13:54;99305.06;;;3.57;69.90
50710;BME280;37033;49.994;21.992;2023-04-27T01:16:25;99306.70;;;3.57;70.10
50710;BME280;37033;49.994;21.992;2023-04-27T01:18:56;99305.52;;;3.56;70.04
50710;BME280;37033;49.994;21.992;2023-04-27T01:21:26;99308.30;;;3.59;70.24
50710;BME280;37033;49.994;21.992;2023-04-27T01:23:57;99309.13;;;3.59;70.15
50710;BME280;37033;49.994;21.992;2023-04-27T01:26:28;99308.17;;;3.61;70.28
50710;BME280;37033;49.994;21.992;2023-04-27T01:28:58;99311.29;;;3.63;70.17
50710;BME280;37033;49.994;21.992;2023-04-27T01:31:29;99313.23;;;3.63;70.19
50710;BME280;37033;49.994;21.992;2023-04-27T01:34:00;99318.55;;;3.65;70.16
50710;BME280;37033;49.994;21.992;2023-04-27T01:36:31;99316.73;;;3.68;69.98
50710;BME280;37033;49.994;21.992;2023-04-27T01:39:02;99317.09;;;3.71;69.84
50710;BME280;37033;49.994;21.992;2023-04-27T01:41:37;99319.13;;;3.74;69.73
50710;BME280;37033;49.994;21.992;2023-04-27T01:44:08;99316.45;;;3.77;69.93
50710;BME280;37033;49.994;21.992;2023-04-27T01:46:38;99316.80;;;3.80;69.65
50710;BME280;37033;49.994;21.992;2023-04-27T01:49:09;99315.77;;;3.82;69.56
50710;BME280;37033;49.994;21.992;2023-04-27T01:51:40;99315.88;;;3.84;69.48
50710;BME280;37033;49.994;21.992;2023-04-27T01:54:10;99315.59;;;3.86;69.17
50710;BME280;37033;49.994;21.992;2023-04-27T01:56:41;99315.48;;;3.87;69.32
50710;BME280;37033;49.994;21.992;2023-04-27T01:59:12;99316.30;;;3.89;69.20
50710;BME280;37033;49.994;21.992;2023-04-27T02:01:42;99317.39;;;3.91;69.01
50710;BME280;37033;49.994;21.992;2023-04-27T02:04:13;99315.54;;;3.92;69.19
50710;BME280;37033;49.994;21.992;2023-04-27T02:06:43;99318.69;;;3.93;69.11
50710;BME280;37033;49.994;21.992;2023-04-27T02:09:14;99317.73;;;3.95;69.01
50710;BME280;37033;49.994;21.992;2023-04-27T02:11:45;99317.13;;;3.95;69.06
50710;BME280;37033;49.994;21.992;2023-04-27T02:14:16;99315.46;;;3.96;68.94
50710;BME280;37033;49.994;21.992;2023-04-27T02:16:46;99315.18;;;3.97;68.88
50710;BME280;37033;49.994;21.992;2023-04-27T02:19:17;99324.32;;;3.98;69.04
50710;BME280;37033;49.994;21.992;2023-04-27T02:21:48;99317.38;;;3.98;68.95
50710;BME280;37033;49.994;21.992;2023-04-27T02:24:19;99321.27;;;3.98;69.04
50710;BME280;37033;49.994;21.992;2023-04-27T02:26:49;99320.89;;;3.98;69.14
50710;BME280;37033;49.994;21.992;2023-04-27T02:29:20;99324.01;;;3.98;68.81
50710;BME280;37033;49.994;21.992;2023-04-27T02:31:51;99325.95;;;3.98;68.81
50710;BME280;37033;49.994;21.992;2023-04-27T02:34:21;99320.02;;;3.98;68.92
50710;BME280;37033;49.994;21.992;2023-04-27T02:36:52;99321.52;;;3.98;68.84
50710;BME280;37033;49.994;21.992;2023-04-27T02:39:23;99322.55;;;3.98;68.93
50710;BME280;37033;49.994;21.992;2023-04-27T02:41:53;99327.56;;;3.98;68.95
50710;BME280;37033;49.994;21.992;2023-04-27T02:44:24;99331.09;;;3.98;68.84
50710;BME280;37033;49.994;21.992;2023-04-27T02:46:55;99330.55;;;3.98;69.03
50710;BME280;37033;49.994;21.992;2023-04-27T02:49:26;99333.45;;;3.98;68.82
50710;BME280;37033;49.994;21.992;2023-04-27T02:51:56;99333.77;;;3.98;68.76
50710;BME280;37033;49.994;21.992;2023-04-27T02:54:27;99336.75;;;3.99;68.73
50710;BME280;37033;49.994;21.992;2023-04-27T02:56:58;99335.21;;;4.00;68.69
50710;BME280;37033;49.994;21.992;2023-04-27T02:59:29;99340.59;;;4.00;68.73
50710;BME280;37033;49.994;21.992;2023-04-27T03:02:00;99337.30;;;4.00;68.66
50710;BME280;37033;49.994;21.992;2023-04-27T03:04:30;99341.89;;;4.01;68.67
50710;BME280;37033;49.994;21.992;2023-04-27T03:07:01;99343.30;;;4.01;68.76
50710;BME280;37033;49.994;21.992;2023-04-27T03:09:32;99344.91;;;4.01;68.53
50710;BME280;37033;49.994;21.992;2023-04-27T03:12:03;99345.61;;;4.01;68.39
50710;BME280;37033;49.994;21.992;2023-04-27T03:14:33;99345.48;;;4.01;68.46
50710;BME280;37033;49.994;21.992;2023-04-27T03:17:04;99344.70;;;4.01;68.41
50710;BME280;37033;49.994;21.992;2023-04-27T03:19:35;99344.87;;;4.01;68.31
50710;BME280;37033;49.994;21.992;2023-04-27T03:22:06;99345.57;;;4.01;68.51
50710;BME280;37033;49.994;21.992;2023-04-27T03:24:37;99349.71;;;4.01;68.46
50710;BME280;37033;49.994;21.992;2023-04-27T03:27:07;99351.57;;;4.01;68.48
50710;BME280;37033;49.994;21.992;2023-04-27T03:29:38;99352.19;;;4.00;68.50
50710;BME280;37033;49.994;21.992;2023-04-27T03:32:09;99352.23;;;4.01;68.34
50710;BME280;37033;49.994;21.992;2023-04-27T03:34:39;99354.92;;;4.01;68.46
50710;BME280;37033;49.994;21.992;2023-04-27T03:37:10;99355.75;;;4.02;68.39
50710;BME280;37033;49.994;21.992;2023-04-27T03:39:41;99360.67;;;4.02;68.44
50710;BME280;37033;49.994;21.992;2023-04-27T03:42:13;99359.19;;;4.03;68.47
50710;BME280;37033;49.994;21.992;2023-04-27T03:44:43;99360.92;;;4.02;68.52
50710;BME280;37033;49.994;21.992;2023-04-27T03:47:14;99364.40;;;4.03;68.35
50710;BME280;37033;49.994;21.992;2023-04-27T03:49:45;99369.81;;;4.04;68.48
50710;BME280;37033;49.994;21.992;2023-04-27T03:52:15;99368.65;;;4.05;68.42
50710;BME280;37033;49.994;21.992;2023-04-27T03:54:46;99371.85;;;4.06;68.54
50710;BME280;37033;49.994;21.992;2023-04-27T03:57:17;99374.95;;;4.07;68.42
50710;BME280;37033;49.994;21.992;2023-04-27T03:59:47;99373.96;;;4.09;68.32
50710;BME280;37033;49.994;21.992;2023-04-27T04:02:18;99374.87;;;4.10;68.39
50710;BME280;37033;49.994;21.992;2023-04-27T04:04:50;99378.06;;;4.12;68.22
50710;BME280;37033;49.994;21.992;2023-04-27T04:07:20;99379.31;;;4.13;68.34
50710;BME280;37033;49.994;21.992;2023-04-27T04:09:51;99380.27;;;4.14;68.31
50710;BME280;37033;49.994;21.992;2023-04-27T04:12:22;99389.39;;;4.16;68.36
50710;BME280;37033;49.994;21.992;2023-04-27T04:14:52;99393.05;;;4.19;68.37
50710;BME280;37033;49.994;21.992;2023-04-27T04:17:23;99395.56;;;4.20;68.30
50710;BME280;37033;49.994;21.992;2023-04-27T04:19:54;99400.96;;;4.21;68.17
50710;BME280;37033;49.994;21.992;2023-04-27T04:22:25;99402.27;;;4.22;68.21
50710;BME280;37033;49.994;21.992;2023-04-27T04:24:55;99400.14;;;4.24;68.30
50710;BME280;37033;49.994;21.992;2023-04-27T04:27:26;99400.94;;;4.25;68.34
50710;BME280;37033;49.994;21.992;2023-04-27T04:29:57;99406.65;;;4.27;68.29
50710;BME280;37033;49.994;21.992;2023-04-27T04:32:28;99407.98;;;4.29;68.33
50710;BME280;37033;49.994;21.992;2023-04-27T04:34:59;99408.88;;;4.32;68.17
50710;BME280;37033;49.994;21.992;2023-04-27T04:37:31;99411.01;;;4.35;68.35
50710;BME280;37033;49.994;21.992;2023-04-27T04:40:04;99416.85;;;4.38;68.21
50710;BME280;37033;49.994;21.992;2023-04-27T04:42:38;99415.42;;;4.44;68.19
50710;BME280;37033;49.994;21.992;2023-04-27T04:45:09;99422.95;;;4.50;68.33
50710;BME280;37033;49.994;21.992;2023-04-27T04:47:40;99419.40;;;4.55;68.09
50710;BME280;37033;49.994;21.992;2023-04-27T04:50:11;99421.63;;;4.63;68.42
50710;BME280;37033;49.994;21.992;2023-04-27T04:52:42;99423.02;;;4.71;68.04
50710;BME280;37033;49.994;21.992;2023-04-27T04:55:13;99426.80;;;4.76;67.86
50710;BME280;37033;49.994;21.992;2023-04-27T04:57:43;99429.38;;;4.81;67.75
50710;BME280;37033;49.994;21.992;2023-04-27T05:00:15;99430.52;;;4.85;67.62
50710;BME280;37033;49.994;21.992;2023-04-27T05:02:46;99436.88;;;4.89;67.59
50710;BME280;37033;49.994;21.992;2023-04-27T05:05:17;99436.38;;;4.91;67.35
50710;BME280;37033;49.994;21.992;2023-04-27T05:07:48;99435.23;;;4.96;67.39
50710;BME280;37033;49.994;21.992;2023-04-27T05:10:20;99439.88;;;5.02;67.23
50710;BME280;37033;49.994;21.992;2023-04-27T05:12:50;99437.08;;;5.07;67.38
50710;BME280;37033;49.994;21.992;2023-04-27T05:15:21;99444.25;;;5.15;67.10
50710;BME280;37033;49.994;21.992;2023-04-27T05:17:52;99443.85;;;5.21;66.95
50710;BME280;37033;49.994;21.992;2023-04-27T05:20:23;99447.06;;;5.26;66.74
50710;BME280;37033;49.994;21.992;2023-04-27T05:22:54;99448.14;;;5.30;66.72
50710;BME280;37033;49.994;21.992;2023-04-27T05:25:25;99450.42;;;5.37;66.80
50710;BME280;37033;49.994;21.992;2023-04-27T05:27:56;99456.45;;;5.42;66.11
50710;BME280;37033;49.994;21.992;2023-04-27T05:30:27;99457.19;;;5.43;66.00
50710;BME280;37033;49.994;21.992;2023-04-27T05:32:57;99456.86;;;5.46;66.08
50710;BME280;37033;49.994;21.992;2023-04-27T05:35:28;99462.75;;;5.50;65.94
50710;BME280;37033;49.994;21.992;2023-04-27T05:37:59;99464.88;;;5.53;65.57
50710;BME280;37033;49.994;21.992;2023-04-27T05:40:30;99464.45;;;5.57;65.63
50710;BME280;37033;49.994;21.992;2023-04-27T05:43:01;99459.43;;;5.67;65.53
50710;BME280;37033;49.994;21.992;2023-04-27T05:45:33;99465.40;;;5.82;65.17
50710;BME280;37033;49.994;21.992;2023-04-27T05:48:08;99468.06;;;5.97;64.79
50710;BME280;37033;49.994;21.992;2023-04-27T05:50:38;99473.29;;;6.10;64.52
50710;BME280;37033;49.994;21.992;2023-04-27T05:53:09;99470.23;;;6.24;64.31
50710;BME280;37033;49.994;21.992;2023-04-27T05:55:41;99470.66;;;6.35;64.07
50710;BME280;37033;49.994;21.992;2023-04-27T05:58:12;99477.48;;;6.47;63.98
50710;BME280;37033;49.994;21.992;2023-04-27T06:00:42;99483.50;;;6.59;63.88
50710;BME280;37033;49.994;21.992;2023-04-27T06:03:13;99482.48;;;6.70;64.05
50710;BME280;37033;49.994;21.992;2023-04-27T06:05:44;99482.57;;;6.84;63.46
50710;BME280;37033;49.994;21.992;2023-04-27T06:08:15;99479.99;;;6.93;63.33
50710;BME280;37033;49.994;21.992;2023-04-27T06:10:46;99480.23;;;7.06;62.82
50710;BME280;37033;49.994;21.992;2023-04-27T06:13:16;99485.08;;;7.16;62.89
50710;BME280;37033;49.994;21.992;2023-04-27T06:15:47;99483.80;;;7.26;62.42
50710;BME280;37033;49.994;21.992;2023-04-27T06:18:18;99491.23;;;7.34;62.12
50710;BME280;37033;49.994;21.992;2023-04-27T06:20:49;99486.29;;;7.42;62.13
50710;BME280;37033;49.994;21.992;2023-04-27T06:23:20;99491.54;;;7.54;62.21
50710;BME280;37033;49.994;21.992;2023-04-27T06:25:50;99494.54;;;7.65;62.13
50710;BME280;37033;49.994;21.992;2023-04-27T06:28:21;99491.59;;;7.83;62.00
50710;BME280;37033;49.994;21.992;2023-04-27T06:30:53;99490.59;;;7.96;61.50
50710;BME280;37033;49.994;21.992;2023-04-27T06:33:24;99493.20;;;8.10;62.01
50710;BME280;37033;49.994;21.992;2023-04-27T06:35:54;99492.36;;;8.34;61.88
50710;BME280;37033;49.994;21.992;2023-04-27T06:38:28;99493.75;;;8.46;60.59
50710;BME280;37033;49.994;21.992;2023-04-27T06:40:59;99498.49;;;8.57;60.92
50710;BME280;37033;49.994;21.992;2023-04-27T06:43:29;99500.84;;;8.70;60.27
50710;BME280;37033;49.994;21.992;2023-04-27T06:46:00;99506.31;;;8.80;59.51
50710;BME280;37033;49.994;21.992;2023-04-27T06:48:34;99503.77;;;8.81;58.56
50710;BME280;37033;49.994;21.992;2023-04-27T06:51:05;99505.97;;;8.84;58.63
50710;BME280;37033;49.994;21.992;2023-04-27T06:53:36;99504.73;;;8.89;58.15
50710;BME280;37033;49.994;21.992;2023-04-27T06:56:10;99501.90;;;8.96;58.45
50710;BME280;37033;49.994;21.992;2023-04-27T06:58:41;99509.11;;;9.06;57.39
50710;BME280;37033;49.994;21.992;2023-04-27T07:01:12;99509.83;;;9.12;57.10
50710;BME280;37033;49.994;21.992;2023-04-27T07:03:43;99506.91;;;9.16;57.05
50710;BME280;37033;49.994;21.992;2023-04-27T07:06:14;99504.64;;;9.23;56.61
50710;BME280;37033;49.994;21.992;2023-04-27T07:08:45;99509.98;;;9.32;56.59
50710;BME280;37033;49.994;21.992;2023-04-27T07:11:16;99507.89;;;9.45;56.69
50710;BME280;37033;49.994;21.992;2023-04-27T07:13:46;99505.38;;;9.59;56.47
50710;BME280;37033;49.994;21.992;2023-04-27T07:16:17;99507.27;;;9.74;55.88
50710;BME280;37033;49.994;21.992;2023-04-27T07:18:48;99506.35;;;9.80;55.34
50710;BME280;37033;49.994;21.992;2023-04-27T07:21:19;99508.44;;;9.90;55.50
50710;BME280;37033;49.994;21.992;2023-04-27T07:23:50;99512.19;;;10.03;54.78
50710;BME280;37033;49.994;21.992;2023-04-27T07:26:21;99506.34;;;10.18;54.83
50710;BME280;37033;49.994;21.992;2023-04-27T07:28:53;99502.44;;;10.39;54.83
50710;BME280;37033;49.994;21.992;2023-04-27T07:31:24;99501.72;;;10.66;54.82
50710;BME280;37033;49.994;21.992;2023-04-27T07:33:56;99501.89;;;10.89;54.42
50710;BME280;37033;49.994;21.992;2023-04-27T07:36:28;99500.39;;;11.04;54.13
50710;BME280;37033;49.994;21.992;2023-04-27T07:39:00;99497.09;;;11.19;54.37
50710;BME280;37033;49.994;21.992;2023-04-27T07:41:33;99502.52;;;11.28;53.77
50710;BME280;37033;49.994;21.992;2023-04-27T07:44:05;99502.69;;;11.28;53.56
50710;BME280;37033;49.994;21.992;2023-04-27T07:46:35;99512.20;;;11.21;52.70
50710;BME280;37033;49.994;21.992;2023-04-27T07:49:07;99512.90;;;11.04;53.21
50710;BME280;37033;49.994;21.992;2023-04-27T07:51:37;99517.31;;;10.94;53.56
50710;BME280;37033;49.994;21.992;2023-04-27T07:54:08;99513.17;;;10.94;53.90
50710;BME280;37033;49.994;21.992;2023-04-27T07:56:41;99518.53;;;10.90;53.87
50710;BME280;37033;49.994;21.992;2023-04-27T07:59:12;99518.17;;;10.88;53.61
50710;BME280;37033;49.994;21.992;2023-04-27T08:01:43;99517.33;;;10.89;53.57
50710;BME280;37033;49.994;21.992;2023-04-27T08:04:14;99517.79;;;10.96;53.41
50710;BME280;37033;49.994;21.992;2023-04-27T08:06:45;99522.27;;;10.89;53.16
50710;BME280;37033;49.994;21.992;2023-04-27T08:09:16;99520.33;;;10.76;52.56
50710;BME280;37033;49.994;21.992;2023-04-27T08:11:47;99522.34;;;10.61;52.49
50710;BME280;37033;49.994;21.992;2023-04-27T08:14:20;99525.82;;;10.49;52.36
50710;BME280;37033;49.994;21.992;2023-04-27T08:16:51;99525.91;;;10.38;52.93
50710;BME280;37033;49.994;21.992;2023-04-27T08:19:22;99531.48;;;10.31;52.20
50710;BME280;37033;49.994;21.992;2023-04-27T08:21:52;99532.88;;;10.20;52.40
50710;BME280;37033;49.994;21.992;2023-04-27T08:24:24;99534.34;;;10.16;52.59
50710;BME280;37033;49.994;21.992;2023-04-27T08:26:55;99533.45;;;10.11;51.98
50710;BME280;37033;49.994;21.992;2023-04-27T08:29:26;99533.13;;;10.05;52.15
50710;BME280;37033;49.994;21.992;2023-04-27T08:31:59;99533.95;;;10.03;52.09
50710;BME280;37033;49.994;21.992;2023-04-27T08:34:30;99535.97;;;10.10;52.48
50710;BME280;37033;49.994;21.992;2023-04-27T08:37:01;99537.77;;;10.17;51.88
50710;BME280;37033;49.994;21.992;2023-04-27T08:39:32;99536.45;;;10.19;51.64
50710;BME280;37033;49.994;21.992;2023-04-27T08:42:10;99533.52;;;10.25;51.98
50710;BME280;37033;49.994;21.992;2023-04-27T08:44:42;99534.27;;;10.38;50.75
50710;BME280;37033;49.994;21.992;2023-04-27T08:47:13;99530.45;;;10.45;50.40
50710;BME280;37033;49.994;21.992;2023-04-27T08:49:44;99525.30;;;10.55;49.80
50710;BME280;37033;49.994;21.992;2023-04-27T08:52:15;99516.33;;;10.72;50.40
50710;BME280;37033;49.994;21.992;2023-04-27T08:54:46;99515.97;;;10.81;49.04
50710;BME280;37033;49.994;21.992;2023-04-27T08:57:17;99514.96;;;10.85;48.64
50710;BME280;37033;49.994;21.992;2023-04-27T08:59:58;99515.60;;;10.87;47.68
50710;BME280;37033;49.994;21.992;2023-04-27T09:02:29;99515.15;;;10.86;46.43
50710;BME280;37033;49.994;21.992;2023-04-27T09:05:00;99514.56;;;10.79;46.62
50710;BME280;37033;49.994;21.992;2023-04-27T09:07:32;99513.11;;;10.77;46.49
50710;BME280;37033;49.994;21.992;2023-04-27T09:10:07;99506.10;;;10.83;47.63
50710;BME280;37033;49.994;21.992;2023-04-27T09:12:36;99504.52;;;10.99;47.86
50710;BME280;37033;49.994;21.992;2023-04-27T09:15:08;99500.90;;;11.08;47.59
50710;BME280;37033;49.994;21.992;2023-04-27T09:17:39;99499.95;;;11.17;47.13
50710;BME280;37033;49.994;21.992;2023-04-27T09:20:12;99498.27;;;11.27;46.98
50710;BME280;37033;49.994;21.992;2023-04-27T09:22:48;99495.76;;;11.35;47.05
50710;BME280;37033;49.994;21.992;2023-04-27T09:25:26;99497.33;;;11.41;46.68
50710;BME280;37033;49.994;21.992;2023-04-27T09:27:59;99494.94;;;11.38;45.51
50710;BME280;37033;49.994;21.992;2023-04-27T09:30:30;99496.42;;;11.27;45.41
50710;BME280;37033;49.994;21.992;2023-04-27T09:33:04;99495.96;;;11.18;45.84
50710;BME280;37033;49.994;21.992;2023-04-27T09:35:35;99497.05;;;11.12;45.20
50710;BME280;37033;49.994;21.992;2023-04-27T09:38:06;99498.33;;;10.99;44.73
50710;BME280;37033;49.994;21.992;2023-04-27T09:40:36;99499.66;;;10.87;44.42
50710;BME280;37033;49.994;21.992;2023-04-27T09:43:08;99500.52;;;10.70;42.89
50710;BME280;37033;49.994;21.992;2023-04-27T09:45:40;99501.93;;;10.48;42.93
50710;BME280;37033;49.994;21.992;2023-04-27T09:48:11;99500.33;;;10.30;43.11
50710;BME280;37033;49.994;21.992;2023-04-27T09:50:44;99503.55;;;10.17;43.67
50710;BME280;37033;49.994;21.992;2023-04-27T09:53:16;99506.02;;;10.09;43.98
50710;BME280;37033;49.994;21.992;2023-04-27T09:55:53;99506.23;;;10.00;42.71
50710;BME280;37033;49.994;21.992;2023-04-27T10:01:28;99505.10;;;9.74;42.78
50710;BME280;37033;49.994;21.992;2023-04-27T10:04:20;99509.32;;;9.64;42.93
50710;BME280;37033;49.994;21.992;2023-04-27T10:07:01;99504.63;;;9.59;43.17
50710;BME280;37033;49.994;21.992;2023-04-27T10:09:34;99507.73;;;9.58;43.39
50710;BME280;37033;49.994;21.992;2023-04-27T10:12:19;99508.96;;;9.54;43.36
50710;BME280;37033;49.994;21.992;2023-04-27T10:14:50;99513.74;;;9.53;43.39
50710;BME280;37033;49.994;21.992;2023-04-27T10:17:24;99506.97;;;9.49;44.35
50710;BME280;37033;49.994;21.992;2023-04-27T10:19:59;99508.27;;;9.55;45.00
50710;BME280;37033;49.994;21.992;2023-04-27T10:22:40;99503.67;;;9.60;45.33
50710;BME280;37033;49.994;21.992;2023-04-27T10:25:17;99495.50;;;9.65;45.15
50710;BME280;37033;49.994;21.992;2023-04-27T10:27:54;99495.62;;;9.68;45.23
50710;BME280;37033;49.994;21.992;2023-04-27T10:30:30;99496.04;;;9.72;44.86
50710;BME280;37033;49.994;21.992;2023-04-27T10:33:05;99495.71;;;9.68;44.14
50710;BME280;37033;49.994;21.992;2023-04-27T10:35:38;99497.15;;;9.62;44.48
50710;BME280;37033;49.994;21.992;2023-04-27T10:38:13;99500.11;;;9.63;44.68
50710;BME280;37033;49.994;21.992;2023-04-27T10:40:53;99494.92;;;9.63;44.25
50710;BME280;37033;49.994;21.992;2023-04-27T10:43:27;99490.70;;;9.69;44.07
50710;BME280;37033;49.994;21.992;2023-04-27T10:46:09;99494.71;;;9.79;43.99
50710;BME280;37033;49.994;21.992;2023-04-27T10:48:41;99490.64;;;9.93;44.08
50710;BME280;37033;49.994;21.992;2023-04-27T10:51:15;99489.98;;;10.14;43.97
50710;BME280;37033;49.994;21.992;2023-04-27T10:53:50;99490.53;;;10.38;43.83
50710;BME280;37033;49.994;21.992;2023-04-27T10:56:24;99489.80;;;10.66;43.73
50710;BME280;37033;49.994;21.992;2023-04-27T10:58:55;99489.04;;;10.89;43.01
50710;BME280;37033;49.994;21.992;2023-04-27T11:01:34;99494.98;;;10.92;42.51
50710;BME280;37033;49.994;21.992;2023-04-27T11:04:05;99492.52;;;10.92;42.78
50710;BME280;37033;49.994;21.992;2023-04-27T11:06:44;99493.63;;;10.98;42.36
50710;BME280;37033;49.994;21.992;2023-04-27T11:09:25;99495.30;;;11.00;42.42
50710;BME280;37033;49.994;21.992;2023-04-27T11:11:56;99491.63;;;11.07;42.42
50710;BME280;37033;49.994;21.992;2023-04-27T11:14:27;99492.60;;;11.10;41.93
50710;BME280;37033;49.994;21.992;2023-04-27T11:16:58;99492.48;;;11.18;42.02
50710;BME280;37033;49.994;21.992;2023-04-27T11:19:29;99495.72;;;11.31;42.43
50710;BME280;37033;49.994;21.992;2023-04-27T11:22:07;99494.35;;;11.57;42.52
50710;BME280;37033;49.994;21.992;2023-04-27T11:24:46;99490.09;;;11.76;42.68
50710;BME280;37033;49.994;21.992;2023-04-27T11:27:18;99496.79;;;11.91;42.41
50710;BME280;37033;49.994;21.992;2023-04-27T11:29:50;99496.70;;;11.95;42.29
50710;BME280;37033;49.994;21.992;2023-04-27T11:32:21;99496.13;;;12.03;41.94
50710;BME280;37033;49.994;21.992;2023-04-27T11:34:53;99498.66;;;12.09;41.68
50710;BME280;37033;49.994;21.992;2023-04-27T11:37:27;99497.95;;;12.11;41.71
50710;BME280;37033;49.994;21.992;2023-04-27T11:40:00;99491.70;;;12.09;41.81
50710;BME280;37033;49.994;21.992;2023-04-27T11:42:31;99491.95;;;12.12;41.57
50710;BME280;37033;49.994;21.992;2023-04-27T11:45:09;99495.52;;;12.10;41.94
50710;BME280;37033;49.994;21.992;2023-04-27T11:47:49;99497.82;;;12.11;41.86
50710;BME280;37033;49.994;21.992;2023-04-27T11:50:24;99501.77;;;12.02;41.34
50710;BME280;37033;49.994;21.992;2023-04-27T11:53:00;99498.50;;;11.92;41.52
50710;BME280;37033;49.994;21.992;2023-04-27T11:55:35;99496.73;;;11.85;42.18
50710;BME280;37033;49.994;21.992;2023-04-27T11:58:14;99496.27;;;11.86;41.91
50710;BME280;37033;49.994;21.992;2023-04-27T12:00:45;99495.64;;;11.94;42.37
50710;BME280;37033;49.994;21.992;2023-04-27T12:03:16;99497.80;;;12.02;40.92
50710;BME280;37033;49.994;21.992;2023-04-27T12:05:50;99492.60;;;11.94;40.39
50710;BME280;37033;49.994;21.992;2023-04-27T12:08:21;99490.48;;;12.02;41.16
50710;BME280;37033;49.994;21.992;2023-04-27T12:10:52;99497.21;;;12.14;40.05
50710;BME280;37033;49.994;21.992;2023-04-27T12:13:23;99497.23;;;12.08;38.70
50710;BME280;37033;49.994;21.992;2023-04-27T12:15:54;99495.41;;;11.91;38.90
50710;BME280;37033;49.994;21.992;2023-04-27T12:18:24;99493.85;;;11.85;39.73
50710;BME280;37033;49.994;21.992;2023-04-27T12:20:55;99493.42;;;11.82;39.58
50710;BME280;37033;49.994;21.992;2023-04-27T12:23:26;99496.39;;;11.74;39.36
50710;BME280;37033;49.994;21.992;2023-04-27T12:25:56;99495.48;;;11.63;40.01
50710;BME280;37033;49.994;21.992;2023-04-27T12:28:27;99501.71;;;11.64;40.30
50710;BME280;37033;49.994;21.992;2023-04-27T12:31:02;99505.52;;;11.51;39.37
50710;BME280;37033;49.994;21.992;2023-04-27T12:33:36;99499.20;;;11.33;39.72
50710;BME280;37033;49.994;21.992;2023-04-27T12:36:07;99501.31;;;11.24;40.06
50710;BME280;37033;49.994;21.992;2023-04-27T12:38:38;99501.90;;;11.18;40.29
50710;BME280;37033;49.994;21.992;2023-04-27T12:41:09;99499.15;;;11.13;40.35
50710;BME280;37033;49.994;21.992;2023-04-27T12:43:39;99501.41;;;11.15;41.01
50710;BME280;37033;49.994;21.992;2023-04-27T12:46:11;99501.82;;;11.25;41.06
50710;BME280;37033;49.994;21.992;2023-04-27T12:48:42;99505.05;;;11.29;40.53
50710;BME280;37033;49.994;21.992;2023-04-27T12:51:16;99502.50;;;11.32;40.31
50710;BME280;37033;49.994;21.992;2023-04-27T12:53:46;99500.14;;;11.31;40.95
50710;BME280;37033;49.994;21.992;2023-04-27T12:56:17;99503.77;;;11.39;40.80
50710;BME280;37033;49.994;21.992;2023-04-27T12:58:48;99504.91;;;11.42;40.59
50710;BME280;37033;49.994;21.992;2023-04-27T13:01:19;99507.96;;;11.36;40.81
50710;BME280;37033;49.994;21.992;2023-04-27T13:03:53;99502.59;;;11.22;40.99
50710;BME280;37033;49.994;21.992;2023-04-27T13:06:25;99511.70;;;11.10;41.29
50710;BME280;37033;49.994;21.992;2023-04-27T13:08:55;99509.91;;;10.99;41.79
50710;BME280;37033;49.994;21.992;2023-04-27T13:11:26;99511.81;;;10.91;41.95
50710;BME280;37033;49.994;21.992;2023-04-27T13:13:57;99512.25;;;10.81;42.23
50710;BME280;37033;49.994;21.992;2023-04-27T13:16:28;99510.24;;;10.70;42.22
50710;BME280;37033;49.994;21.992;2023-04-27T13:18:59;99507.84;;;10.60;42.36
50710;BME280;37033;49.994;21.992;2023-04-27T13:21:30;99505.66;;;10.54;42.36